createdAt,value
2023-01-13T00:01:31.805Z,59.79
2023-01-13T00:04:01.089Z,59.43
2023-01-13T00:06:30.975Z,60.10
2023-01-13T00:08:59.441Z,60.36
2023-01-13T00:11:27.869Z,60.09
2023-01-13T00:13:56.378Z,60.62
2023-01-13T00:16:24.547Z,60.58
2023-01-13T00:18:52.967Z,59.95
2023-01-13T00:21:23.174Z,57.83
2023-01-13T00:23:55.155Z,59.69
2023-01-13T00:26:26.607Z,59.07
2023-01-13T00:28:58.995Z,60.52
2023-01-13T00:31:28.740Z,60.32
2023-01-13T00:33:58.441Z,59.61
2023-01-13T00:36:27.063Z,58.31
2023-01-13T00:38:56.607Z,58.62
2023-01-13T00:41:26.889Z,60.66
2023-01-13T00:43:54.360Z,61.38
2023-01-13T00:46:24.065Z,61.58
2023-01-13T00:48:53.024Z,61.39
2023-01-13T00:51:22.880Z,61.25
2023-01-13T00:53:52.976Z,60.92
2023-01-13T00:56:39.156Z,62.19
2023-01-13T00:59:09.536Z,60.50
2023-01-13T01:01:38.071Z,60.37
2023-01-13T01:04:06.775Z,59.47
2023-01-13T01:06:35.451Z,59.65
2023-01-13T01:09:04.161Z,60.60
2023-01-13T01:11:35.022Z,60.11
2023-01-13T01:14:05.176Z,58.53
2023-01-13T01:16:35.339Z,59.52
2023-01-13T01:19:05.225Z,59.59
2023-01-13T01:21:36.741Z,62.32
2023-01-13T01:24:06.273Z,60.83
2023-01-13T01:26:36.121Z,59.29
2023-01-13T01:29:04.602Z,58.97
2023-01-13T01:31:33.596Z,60.00
2023-01-13T01:34:03.295Z,59.97
2023-01-13T01:36:31.979Z,59.67
2023-01-13T01:39:01.210Z,58.59
2023-01-13T01:41:32.037Z,59.00
2023-01-13T01:44:07.291Z,59.62
2023-01-13T01:46:38.187Z,62.12
2023-01-13T01:49:19.116Z,63.14
2023-01-13T01:51:51.344Z,60.34
2023-01-13T01:54:25.921Z,58.80
2023-01-13T01:56:54.726Z,58.47
2023-01-13T01:59:30.020Z,60.26
2023-01-13T02:01:58.601Z,62.32
2023-01-13T02:04:29.832Z,61.15
2023-01-13T02:06:59.268Z,59.76
2023-01-13T02:09:29.154Z,59.91
2023-01-13T02:12:15.222Z,59.05
2023-01-13T02:14:45.926Z,59.09
2023-01-13T02:17:28.571Z,60.65
2023-01-13T02:20:25.475Z,58.92
2023-01-13T02:23:46.695Z,58.03
2023-01-13T02:26:38.136Z,58.95
2023-01-13T02:29:34.752Z,60.17
2023-01-13T02:32:13.107Z,58.84
2023-01-13T02:34:43.699Z,58.70
2023-01-13T02:37:18.100Z,59.73
2023-01-13T02:39:56.486Z,59.08
2023-01-13T02:42:44.407Z,57.63
2023-01-13T02:45:17.739Z,58.18
2023-01-13T02:47:50.779Z,59.50
2023-01-13T02:50:22.065Z,59.84
2023-01-13T02:52:55.165Z,61.27
2023-01-13T02:55:28.111Z,61.64
2023-01-13T02:57:59.838Z,60.82
2023-01-13T03:00:29.237Z,61.44
2023-01-13T03:02:59.312Z,61.83
2023-01-13T03:05:28.611Z,60.01
2023-01-13T03:08:21.846Z,60.07
2023-01-13T03:11:04.147Z,60.46
2023-01-13T03:14:03.034Z,61.49
2023-01-13T03:16:38.554Z,60.24
2023-01-13T03:19:17.680Z,61.06
2023-01-13T03:21:53.586Z,60.56
2023-01-13T03:24:28.179Z,59.92
2023-01-13T03:27:03.777Z,58.89
2023-01-13T03:29:37.649Z,59.02
2023-01-13T03:32:11.720Z,58.94
2023-01-13T03:34:47.147Z,59.48
2023-01-13T03:37:18.141Z,59.90
2023-01-13T03:39:51.603Z,62.27
2023-01-13T03:42:24.625Z,60.23
2023-01-13T03:44:57.954Z,61.09
2023-01-13T03:47:33.147Z,60.56
2023-01-13T03:50:07.811Z,59.40
2023-01-13T03:52:41.758Z,57.52
2023-01-13T03:55:14.161Z,58.46
2023-01-13T03:57:48.911Z,59.43
2023-01-13T04:00:19.834Z,58.68
2023-01-13T04:02:54.107Z,57.85
2023-01-13T04:05:24.867Z,58.81
2023-01-13T04:08:00.362Z,59.96
2023-01-13T04:10:32.610Z,59.89
2023-01-13T04:13:05.115Z,59.72
2023-01-13T04:15:37.776Z,59.30
2023-01-13T04:18:18.086Z,61.52
2023-01-13T04:20:50.114Z,60.68
2023-01-13T04:23:19.844Z,59.99
2023-01-13T04:25:49.518Z,60.03
2023-01-13T04:28:19.349Z,60.06
2023-01-13T04:30:48.852Z,59.93
2023-01-13T04:33:19.252Z,61.46
2023-01-13T04:35:49.416Z,59.63
2023-01-13T04:38:19.539Z,60.23
2023-01-13T04:40:48.445Z,58.53
2023-01-13T04:43:16.904Z,58.14
2023-01-13T04:45:45.854Z,61.19
2023-01-13T04:48:14.620Z,60.66
2023-01-13T04:50:43.119Z,60.80
2023-01-13T04:53:12.706Z,60.32
2023-01-13T04:55:41.100Z,58.70
2023-01-13T04:58:11.183Z,58.24
2023-01-13T05:00:39.711Z,61.28
2023-01-13T05:03:08.004Z,59.99
2023-01-13T05:05:36.201Z,59.97
2023-01-13T05:08:05.071Z,59.64
2023-01-13T05:10:34.923Z,60.03
2023-01-13T05:13:20.568Z,59.67
2023-01-13T05:16:07.074Z,59.69
2023-01-13T05:18:35.837Z,60.54
2023-01-13T05:21:03.997Z,60.48
2023-01-13T05:23:55.355Z,60.96
2023-01-13T05:26:25.958Z,60.26
2023-01-13T05:28:55.926Z,59.67
2023-01-13T05:31:24.596Z,58.65
2023-01-13T05:33:53.042Z,59.75
2023-01-13T05:36:21.197Z,58.66
2023-01-13T05:38:49.664Z,59.00
2023-01-13T05:41:36.036Z,58.40
2023-01-13T05:44:06.869Z,58.23
2023-01-13T05:46:35.310Z,57.95
2023-01-13T05:49:03.783Z,58.40
2023-01-13T05:51:33.091Z,58.11
2023-01-13T05:54:01.510Z,58.46
2023-01-13T05:56:29.812Z,58.74
2023-01-13T05:58:58.277Z,58.90
2023-01-13T06:01:28.099Z,59.26
2023-01-13T06:03:57.718Z,58.17
2023-01-13T06:06:26.373Z,59.74
2023-01-13T06:08:54.582Z,58.88
2023-01-13T06:11:22.937Z,58.49
2023-01-13T06:13:51.419Z,58.42
2023-01-13T06:16:19.697Z,57.89
2023-01-13T06:18:49.595Z,59.01
2023-01-13T06:21:18.054Z,58.48
2023-01-13T06:23:46.426Z,57.30
2023-01-13T06:26:15.727Z,59.57
2023-01-13T06:28:44.210Z,59.64
2023-01-13T06:31:13.445Z,59.15
2023-01-13T06:33:46.150Z,59.59
2023-01-13T06:36:20.092Z,58.95
2023-01-13T06:38:56.260Z,58.62
2023-01-13T06:41:39.477Z,56.96
2023-01-13T06:44:08.184Z,57.28
2023-01-13T06:46:37.394Z,58.76
2023-01-13T06:49:05.995Z,61.21
2023-01-13T06:51:36.235Z,58.22
2023-01-13T06:54:05.124Z,57.08
2023-01-13T06:56:33.506Z,57.25
2023-01-13T06:59:01.992Z,57.66
2023-01-13T07:01:30.286Z,59.31
2023-01-13T07:03:58.854Z,59.39
2023-01-13T07:06:27.193Z,59.32
2023-01-13T07:08:57.071Z,57.47
2023-01-13T07:11:25.821Z,58.24
2023-01-13T07:14:11.425Z,58.73
2023-01-13T07:16:39.934Z,59.88
2023-01-13T07:19:08.005Z,59.67
2023-01-13T07:21:36.314Z,60.69
2023-01-13T07:24:06.628Z,57.61
2023-01-13T07:26:35.121Z,56.68
2023-01-13T07:29:03.283Z,57.57
2023-01-13T07:31:31.678Z,57.59
2023-01-13T07:34:00.127Z,59.18
2023-01-13T07:36:28.240Z,57.32
2023-01-13T07:38:56.856Z,58.24
2023-01-13T07:41:44.041Z,59.08
2023-01-13T07:44:13.054Z,55.98
2023-01-13T07:46:42.156Z,56.51
2023-01-13T07:49:10.947Z,56.40
2023-01-13T07:51:40.170Z,56.44
2023-01-13T07:54:08.865Z,58.50
2023-01-13T07:56:38.653Z,58.29
2023-01-13T07:59:07.169Z,57.59
2023-01-13T08:01:35.327Z,55.43
2023-01-13T08:04:03.780Z,56.65
2023-01-13T08:06:32.322Z,57.05
2023-01-13T08:09:00.719Z,57.86
2023-01-13T08:11:29.033Z,56.30
2023-01-13T08:13:59.195Z,56.06
2023-01-13T08:16:28.336Z,56.84
2023-01-13T08:18:57.148Z,57.74
2023-01-13T08:21:26.232Z,56.64
2023-01-13T08:23:54.682Z,56.97
2023-01-13T08:26:22.874Z,55.94
2023-01-13T08:28:51.421Z,55.00
2023-01-13T08:31:21.484Z,55.78
2023-01-13T08:33:52.659Z,56.46
2023-01-13T08:36:21.284Z,56.58
2023-01-13T08:38:49.436Z,56.66
2023-01-13T08:41:38.957Z,58.41
2023-01-13T08:44:09.281Z,58.62
2023-01-13T08:46:39.224Z,58.54
2023-01-13T08:49:07.630Z,57.57
2023-01-13T08:51:36.094Z,56.19
2023-01-13T08:54:05.062Z,56.09
2023-01-13T08:56:35.537Z,55.96
2023-01-13T08:59:04.550Z,57.06
2023-01-13T09:01:34.112Z,57.88
2023-01-13T09:04:04.165Z,55.13
2023-01-13T09:06:33.246Z,53.50
2023-01-13T09:09:02.636Z,57.30
2023-01-13T09:11:52.655Z,56.94
2023-01-13T09:14:23.082Z,56.21
2023-01-13T09:16:51.610Z,54.49
2023-01-13T09:19:21.175Z,55.54
2023-01-13T09:21:49.930Z,54.80
2023-01-13T09:24:18.396Z,55.99
2023-01-13T09:26:46.720Z,54.27
2023-01-13T09:29:15.409Z,54.77
2023-01-13T09:31:44.567Z,54.45
2023-01-13T09:34:33.212Z,54.52
2023-01-13T09:37:03.718Z,54.59
2023-01-13T09:39:33.482Z,54.37
2023-01-13T09:42:26.257Z,55.68
2023-01-13T09:45:01.862Z,55.02
2023-01-13T09:47:37.008Z,55.11
2023-01-13T09:50:19.489Z,55.35
2023-01-13T09:52:49.612Z,54.07
2023-01-13T09:55:21.145Z,56.20
2023-01-13T09:57:49.926Z,56.46
2023-01-13T10:00:23.487Z,56.19
2023-01-13T10:03:19.368Z,55.24
2023-01-13T10:05:56.636Z,55.33
2023-01-13T10:08:30.061Z,54.57
2023-01-13T10:11:01.222Z,55.46
2023-01-13T10:13:31.021Z,54.86
2023-01-13T10:16:20.001Z,57.45
2023-01-13T10:19:02.016Z,56.56
2023-01-13T10:22:09.177Z,55.81
2023-01-13T10:25:00.126Z,55.56
2023-01-13T10:27:34.701Z,55.49
2023-01-13T10:30:14.271Z,54.98
2023-01-13T10:32:47.625Z,54.49
2023-01-13T10:35:16.180Z,52.11
2023-01-13T10:37:58.017Z,53.57
2023-01-13T10:40:28.067Z,53.50
2023-01-13T10:43:07.235Z,54.98
2023-01-13T10:45:35.785Z,54.44
2023-01-13T10:48:14.123Z,56.01
2023-01-13T10:50:43.306Z,55.62
2023-01-13T10:53:20.285Z,56.71
2023-01-13T10:56:02.949Z,57.58
2023-01-13T10:58:31.580Z,57.10
2023-01-13T11:01:03.710Z,56.55
2023-01-13T11:03:43.118Z,56.64
2023-01-13T11:06:22.218Z,55.81
2023-01-13T11:08:55.270Z,56.75
2023-01-13T11:11:39.890Z,55.42
2023-01-13T11:14:37.025Z,54.69
2023-01-13T11:17:15.926Z,56.89
2023-01-13T11:19:51.462Z,57.34
2023-01-13T11:22:27.110Z,56.01
2023-01-13T11:24:59.740Z,56.94
2023-01-13T11:27:40.187Z,56.50
2023-01-13T11:30:18.597Z,56.84
2023-01-13T11:32:54.977Z,56.96
2023-01-13T11:35:23.662Z,55.27
2023-01-13T11:37:59.047Z,57.92
2023-01-13T11:40:34.041Z,57.50
2023-01-13T11:43:12.415Z,56.50
2023-01-13T11:45:43.649Z,56.35
2023-01-13T11:48:16.677Z,54.62
2023-01-13T11:50:54.054Z,56.84
2023-01-13T11:53:39.518Z,55.92
2023-01-13T11:56:25.089Z,57.68
2023-01-13T11:59:09.979Z,56.98
2023-01-13T12:02:00.045Z,56.89
2023-01-13T12:04:36.439Z,57.00
2023-01-13T12:07:16.550Z,58.70
2023-01-13T12:10:05.167Z,56.01
2023-01-13T12:12:49.828Z,57.62
2023-01-13T12:15:37.530Z,57.60
2023-01-13T12:18:41.843Z,59.77
2023-01-13T12:21:27.249Z,58.04
2023-01-13T12:24:07.299Z,57.98
2023-01-13T12:26:39.378Z,58.61
2023-01-13T12:29:13.937Z,58.26
2023-01-13T12:31:45.238Z,57.16
2023-01-13T12:34:32.365Z,56.77
2023-01-13T12:37:10.970Z,58.42
2023-01-13T12:39:52.700Z,57.38
2023-01-13T12:42:45.290Z,57.98
2023-01-13T12:45:25.884Z,58.38
2023-01-13T12:47:56.452Z,57.92
2023-01-13T12:51:00.667Z,60.24
2023-01-13T12:53:38.752Z,60.14
2023-01-13T12:56:44.693Z,58.77
2023-01-13T12:59:48.927Z,58.65
2023-01-13T13:02:35.155Z,58.82
2023-01-13T13:05:39.921Z,59.07
2023-01-13T13:08:17.817Z,58.88
2023-01-13T13:10:58.087Z,58.35
2023-01-13T13:13:45.233Z,59.06
2023-01-13T13:16:46.711Z,59.69
2023-01-13T13:19:48.628Z,58.55
2023-01-13T13:22:46.051Z,59.04
2023-01-13T13:25:28.044Z,58.01
2023-01-13T13:28:09.079Z,59.59
2023-01-13T13:30:40.601Z,60.06
2023-01-13T13:33:29.087Z,59.21
2023-01-13T13:36:07.347Z,59.38
2023-01-13T13:39:11.630Z,59.91
2023-01-13T13:42:04.147Z,58.04
2023-01-13T13:44:59.484Z,58.88
2023-01-13T13:47:36.885Z,58.50
2023-01-13T13:50:13.868Z,57.95
2023-01-13T13:52:51.473Z,59.05
2023-01-13T13:55:23.986Z,58.98
2023-01-13T13:57:53.964Z,57.96
2023-01-13T14:00:26.592Z,58.73
2023-01-13T14:02:58.480Z,58.05
2023-01-13T14:05:29.747Z,58.77
2023-01-13T14:08:03.233Z,58.47
2023-01-13T14:10:36.146Z,59.58
2023-01-13T14:13:15.777Z,60.07
2023-01-13T14:15:45.510Z,57.40
2023-01-13T14:18:16.990Z,57.72
2023-01-13T14:20:52.928Z,59.12
2023-01-13T14:23:28.295Z,58.42
2023-01-13T14:26:03.851Z,58.52
2023-01-13T14:28:37.029Z,57.32
2023-01-13T14:31:06.576Z,57.07
2023-01-13T14:33:38.866Z,57.93
2023-01-13T14:36:13.824Z,57.33
2023-01-13T14:38:43.535Z,57.48
2023-01-13T14:41:24.278Z,61.33
2023-01-13T14:43:55.975Z,58.40
2023-01-13T14:46:25.689Z,59.44
2023-01-13T14:49:02.055Z,57.59
2023-01-13T14:51:31.964Z,58.36
2023-01-13T14:54:00.515Z,60.77
2023-01-13T14:56:40.627Z,59.04
2023-01-13T14:59:38.000Z,58.77
2023-01-13T15:02:48.137Z,60.00
2023-01-13T15:05:35.508Z,57.95
2023-01-13T15:08:09.915Z,58.63
2023-01-13T15:10:46.887Z,58.11
2023-01-13T15:13:29.790Z,61.78
2023-01-13T15:16:01.016Z,60.50
2023-01-13T15:18:29.629Z,60.67
2023-01-13T15:20:58.026Z,58.63
2023-01-13T15:23:29.293Z,59.05
2023-01-13T15:26:00.912Z,58.13
2023-01-13T15:28:34.389Z,58.91
2023-01-13T15:31:04.074Z,59.14
2023-01-13T15:33:32.940Z,59.86
2023-01-13T15:36:01.994Z,59.58
2023-01-13T15:38:30.499Z,58.26
2023-01-13T15:40:58.694Z,58.38
2023-01-13T15:43:44.605Z,59.16
2023-01-13T15:46:35.141Z,60.03
2023-01-13T15:49:10.027Z,59.86
2023-01-13T15:51:39.049Z,60.74
2023-01-13T15:54:07.962Z,61.04
2023-01-13T15:56:38.223Z,59.45
2023-01-13T15:59:19.263Z,59.54
2023-01-13T16:01:50.330Z,58.19
2023-01-13T16:04:20.576Z,59.58
2023-01-13T16:06:49.227Z,59.38
2023-01-13T16:09:17.469Z,59.63
2023-01-13T16:11:46.071Z,60.91
2023-01-13T16:14:14.584Z,59.46
2023-01-13T16:16:43.181Z,58.71
2023-01-13T16:19:14.207Z,59.10
2023-01-13T16:21:42.995Z,60.01
2023-01-13T16:24:11.724Z,58.56
2023-01-13T16:26:40.501Z,59.49
2023-01-13T16:29:09.678Z,60.96
2023-01-13T16:31:38.291Z,59.97
2023-01-13T16:34:07.238Z,58.87
2023-01-13T16:36:39.489Z,61.42
2023-01-13T16:39:21.527Z,61.24
2023-01-13T16:41:50.648Z,59.74
2023-01-13T16:44:19.184Z,62.51
2023-01-13T16:46:50.403Z,61.37
2023-01-13T16:49:19.017Z,59.10
2023-01-13T16:51:48.904Z,59.75
2023-01-13T16:54:17.699Z,58.46
2023-01-13T16:56:46.329Z,60.30
2023-01-13T16:59:17.133Z,59.35
2023-01-13T17:01:46.379Z,60.54
2023-01-13T17:04:17.967Z,60.84
2023-01-13T17:06:57.866Z,59.12
2023-01-13T17:09:31.414Z,59.64
2023-01-13T17:12:00.096Z,58.47
2023-01-13T17:14:28.318Z,61.10
2023-01-13T17:16:58.283Z,61.17
2023-01-13T17:19:28.921Z,59.63
2023-01-13T17:21:59.216Z,59.86
2023-01-13T17:24:31.089Z,59.38
2023-01-13T17:26:59.879Z,59.45
2023-01-13T17:29:33.039Z,60.56
2023-01-13T17:32:08.148Z,62.32
2023-01-13T17:34:40.361Z,60.28
2023-01-13T17:37:15.742Z,59.69
2023-01-13T17:39:49.157Z,58.82
2023-01-13T17:42:18.336Z,61.61
2023-01-13T17:44:50.590Z,60.20
2023-01-13T17:47:19.290Z,59.87
2023-01-13T17:49:47.636Z,62.11
2023-01-13T17:52:17.561Z,60.10
2023-01-13T17:54:46.272Z,59.30
2023-01-13T17:57:14.783Z,62.07
2023-01-13T17:59:43.322Z,61.07
2023-01-13T18:02:12.921Z,61.61
2023-01-13T18:04:42.112Z,59.25
2023-01-13T18:07:10.633Z,61.15
2023-01-13T18:09:40.404Z,60.28
2023-01-13T18:12:09.805Z,61.30
2023-01-13T18:14:39.421Z,60.24
2023-01-13T18:17:09.024Z,60.86
2023-01-13T18:19:55.979Z,61.91
2023-01-13T18:22:42.069Z,60.66
2023-01-13T18:25:31.441Z,61.95
2023-01-13T18:28:01.711Z,59.96
2023-01-13T18:30:30.604Z,59.94
2023-01-13T18:32:59.491Z,59.37
2023-01-13T18:35:29.705Z,60.72
2023-01-13T18:37:59.815Z,59.12
2023-01-13T18:40:30.119Z,59.78
2023-01-13T18:42:59.469Z,60.34
2023-01-13T18:45:30.248Z,60.76
2023-01-13T18:48:01.395Z,60.38
2023-01-13T18:50:31.275Z,60.67
2023-01-13T18:53:00.547Z,62.36
2023-01-13T18:55:30.809Z,60.67
2023-01-13T18:57:59.551Z,62.42
2023-01-13T19:00:29.173Z,60.34
2023-01-13T19:05:36.231Z,61.54
2023-01-13T19:08:05.892Z,61.93
2023-01-13T19:10:36.871Z,61.08
2023-01-13T19:13:05.769Z,60.75
2023-01-13T19:15:37.432Z,59.66
2023-01-13T19:18:06.309Z,58.68
2023-01-13T19:20:34.907Z,58.06
2023-01-13T19:23:03.733Z,58.14
2023-01-13T19:25:33.208Z,61.15
2023-01-13T19:28:03.730Z,60.92
2023-01-13T19:30:32.719Z,61.22
2023-01-13T19:33:01.404Z,61.00
2023-01-13T19:35:29.664Z,60.69
2023-01-13T19:37:58.646Z,60.97
2023-01-13T19:40:27.237Z,59.87
2023-01-13T19:43:13.617Z,60.75
2023-01-13T19:45:45.125Z,59.44
2023-01-13T19:48:16.529Z,62.68
2023-01-13T19:50:45.599Z,65.44
2023-01-13T19:53:18.473Z,61.86
2023-01-13T19:55:49.482Z,62.35
2023-01-13T19:58:20.123Z,63.24
2023-01-13T20:00:52.946Z,61.97
2023-01-13T20:03:25.589Z,62.28
2023-01-13T20:06:07.651Z,60.91
2023-01-13T20:08:37.158Z,61.81
2023-01-13T20:11:31.042Z,62.11
2023-01-13T20:14:01.761Z,60.19
2023-01-13T20:16:34.333Z,60.34
2023-01-13T20:19:05.020Z,60.72
2023-01-13T20:21:37.144Z,59.96
2023-01-13T20:24:19.892Z,60.52
2023-01-13T20:26:51.089Z,60.55
2023-01-13T20:29:20.661Z,60.75
2023-01-13T20:31:52.041Z,59.58
2023-01-13T20:34:24.795Z,60.54
2023-01-13T20:36:59.741Z,58.89
2023-01-13T20:39:29.824Z,59.11
2023-01-13T20:42:16.268Z,60.29
2023-01-13T20:44:46.953Z,60.31
2023-01-13T20:47:18.759Z,60.43
2023-01-13T20:49:47.496Z,60.18
2023-01-13T20:52:17.283Z,59.35
2023-01-13T20:54:46.738Z,57.77
2023-01-13T20:57:16.492Z,60.63
2023-01-13T20:59:45.515Z,59.06
2023-01-13T21:02:25.679Z,59.65
2023-01-13T21:04:55.342Z,58.58
2023-01-13T21:07:24.600Z,57.94
2023-01-13T21:10:03.413Z,59.37
2023-01-13T21:12:52.023Z,58.65
2023-01-13T21:15:22.379Z,58.93
2023-01-13T21:18:10.994Z,59.11
2023-01-13T21:20:46.655Z,62.42
2023-01-13T21:23:19.240Z,61.14
2023-01-13T21:25:49.583Z,61.30
2023-01-13T21:28:28.263Z,61.09
2023-01-13T21:30:57.203Z,61.39
2023-01-13T21:33:48.698Z,60.82
2023-01-13T21:36:18.450Z,60.85
2023-01-13T21:38:52.910Z,60.02
2023-01-13T21:41:36.089Z,59.16
2023-01-13T21:44:22.242Z,60.41
2023-01-13T21:47:08.658Z,60.30
2023-01-13T21:49:44.443Z,59.95
2023-01-13T21:52:13.901Z,62.15
2023-01-13T21:54:57.180Z,62.62
2023-01-13T21:57:27.802Z,61.45
2023-01-13T22:00:02.514Z,63.26
2023-01-13T22:02:36.323Z,60.51
2023-01-13T22:05:09.649Z,60.19
2023-01-13T22:07:40.136Z,61.22
2023-01-13T22:10:12.633Z,63.71
2023-01-13T22:12:43.574Z,62.02
2023-01-13T22:15:15.336Z,63.88
2023-01-13T22:17:45.957Z,62.45
2023-01-13T22:20:17.175Z,60.58
2023-01-13T22:22:46.740Z,60.03
2023-01-13T22:25:20.342Z,61.83
2023-01-13T22:27:49.790Z,61.36
2023-01-13T22:30:22.203Z,61.12
2023-01-13T22:32:51.877Z,59.82
2023-01-13T22:35:25.024Z,60.45
2023-01-13T22:37:54.428Z,59.42
2023-01-13T22:40:23.565Z,59.56
2023-01-13T22:42:52.782Z,61.13
2023-01-13T22:45:22.070Z,62.89
2023-01-13T22:47:51.228Z,62.19
2023-01-13T22:50:23.271Z,62.48
2023-01-13T22:52:53.319Z,60.92
2023-01-13T22:55:23.290Z,61.86
2023-01-13T22:57:53.131Z,63.78
2023-01-13T23:00:25.401Z,62.80
2023-01-13T23:02:55.523Z,61.99
2023-01-13T23:05:28.452Z,62.52
2023-01-13T23:07:59.645Z,62.85
2023-01-13T23:10:29.126Z,62.42
2023-01-13T23:12:57.890Z,61.93
2023-01-13T23:15:26.777Z,61.10
2023-01-13T23:17:55.608Z,60.67
2023-01-13T23:20:25.933Z,62.02
2023-01-13T23:22:55.183Z,61.16
2023-01-13T23:25:24.339Z,63.78
2023-01-13T23:27:53.261Z,62.63
2023-01-13T23:30:22.226Z,63.11
2023-01-13T23:32:51.083Z,62.43
2023-01-13T23:35:20.261Z,63.14
2023-01-13T23:37:50.656Z,61.63
2023-01-13T23:40:19.892Z,60.77
2023-01-13T23:42:49.130Z,61.07
2023-01-13T23:45:18.579Z,61.13
2023-01-13T23:47:47.398Z,62.35
2023-01-13T23:50:16.291Z,62.48
2023-01-13T23:52:45.064Z,61.84
2023-01-13T23:55:15.571Z,61.72
2023-01-13T23:57:44.486Z,60.66
